Laniel, Canada
Current Conditions -  °F | °C
As of 9:00 AM on Saturday 22 Nov 2014 (Local Time) from CYYB Reporting Station
Overcast Overcast  
Wind Chill: 16°   Ceiling: 1200
Heat Index: 28°   Visibility: 15mi
Dew Point: 27°   Wind: 18mph
Humidity: 93%   Direction: 210°SSW
Pressure: 29.85"   Gusts: 26mph
Location:  47.03°N, 79.27°W
Report Text: CYYB 221400Z 21016G23KT 15SM OVC012 M02/M03 A2985 RMK SC8 SLP129
Loading
Personal Weather Stations






























Interactive Weather Map New forecast layout! Learn more

10-Day Weather Forecast

Advertisements
Track Severe Weather on mobile